sensor_id;sensor_type;location;lat;lon;timestamp;P1;durP1;ratioP1;P2;durP2;ratioP2
76589;SDS011;65471;55.908;37.880;2024-01-10T00:00:21;4.20;;;3.88;;
76589;SDS011;65471;55.908;37.880;2024-01-10T00:02:48;4.07;;;3.85;;
76589;SDS011;65471;55.908;37.880;2024-01-10T00:05:15;3.90;;;3.50;;
76589;SDS011;65471;55.908;37.880;2024-01-10T00:07:46;5.43;;;3.70;;
76589;SDS011;65471;55.908;37.880;2024-01-10T00:10:13;4.07;;;3.78;;
76589;SDS011;65471;55.908;37.880;2024-01-10T00:12:40;4.72;;;3.70;;
76589;SDS011;65471;55.908;37.880;2024-01-10T00:15:10;3.80;;;3.50;;
76589;SDS011;65471;55.908;37.880;2024-01-10T00:17:37;4.03;;;3.72;;
76589;SDS011;65471;55.908;37.880;2024-01-10T00:22:34;3.90;;;3.00;;
76589;SDS011;65471;55.908;37.880;2024-01-10T00:25:01;4.38;;;3.53;;
76589;SDS011;65471;55.908;37.880;2024-01-10T00:27:29;4.75;;;2.92;;
76589;SDS011;65471;55.908;37.880;2024-01-10T00:29:56;4.35;;;3.22;;
76589;SDS011;65471;55.908;37.880;2024-01-10T00:32:23;4.18;;;3.30;;
76589;SDS011;65471;55.908;37.880;2024-01-10T00:34:51;3.38;;;3.13;;
76589;SDS011;65471;55.908;37.880;2024-01-10T00:37:18;3.25;;;3.03;;
76589;SDS011;65471;55.908;37.880;2024-01-10T00:39:45;2.80;;;2.55;;
76589;SDS011;65471;55.908;37.880;2024-01-10T00:42:12;3.10;;;2.80;;
76589;SDS011;65471;55.908;37.880;2024-01-10T00:44:38;2.67;;;2.47;;
76589;SDS011;65471;55.908;37.880;2024-01-10T00:47:05;2.60;;;2.40;;
76589;SDS011;65471;55.908;37.880;2024-01-10T00:49:33;3.28;;;2.60;;
76589;SDS011;65471;55.908;37.880;2024-01-10T00:52:00;2.53;;;2.40;;
76589;SDS011;65471;55.908;37.880;2024-01-10T00:54:27;2.40;;;2.20;;
76589;SDS011;65471;55.908;37.880;2024-01-10T00:56:54;2.55;;;2.40;;
76589;SDS011;65471;55.908;37.880;2024-01-10T00:59:21;2.67;;;2.58;;
76589;SDS011;65471;55.908;37.880;2024-01-10T01:01:48;2.75;;;1.90;;
76589;SDS011;65471;55.908;37.880;2024-01-10T01:04:15;2.13;;;2.03;;
76589;SDS011;65471;55.908;37.880;2024-01-10T01:06:42;2.30;;;2.20;;
76589;SDS011;65471;55.908;37.880;2024-01-10T01:09:09;2.00;;;1.90;;
76589;SDS011;65471;55.908;37.880;2024-01-10T01:11:36;1.70;;;1.70;;
76589;SDS011;65471;55.908;37.880;2024-01-10T01:14:03;1.92;;;1.83;;
76589;SDS011;65471;55.908;37.880;2024-01-10T01:16:30;1.67;;;1.65;;
76589;SDS011;65471;55.908;37.880;2024-01-10T01:18:57;1.50;;;1.50;;
76589;SDS011;65471;55.908;37.880;2024-01-10T01:21:24;1.40;;;1.40;;
76589;SDS011;65471;55.908;37.880;2024-01-10T01:23:51;1.73;;;1.65;;
76589;SDS011;65471;55.908;37.880;2024-01-10T01:26:18;1.67;;;1.67;;
76589;SDS011;65471;55.908;37.880;2024-01-10T01:28:45;1.17;;;1.17;;
76589;SDS011;65471;55.908;37.880;2024-01-10T01:31:12;1.55;;;1.45;;
76589;SDS011;65471;55.908;37.880;2024-01-10T01:33:39;1.48;;;1.48;;
76589;SDS011;65471;55.908;37.880;2024-01-10T01:36:06;1.35;;;1.35;;
76589;SDS011;65471;55.908;37.880;2024-01-10T01:38:33;1.08;;;1.08;;
76589;SDS011;65471;55.908;37.880;2024-01-10T01:41:01;3.80;;;1.20;;
76589;SDS011;65471;55.908;37.880;2024-01-10T01:43:29;0.77;;;0.77;;
76589;SDS011;65471;55.908;37.880;2024-01-10T01:45:56;0.80;;;0.80;;
76589;SDS011;65471;55.908;37.880;2024-01-10T01:48:24;0.75;;;0.75;;
76589;SDS011;65471;55.908;37.880;2024-01-10T01:50:56;1.33;;;1.23;;
76589;SDS011;65471;55.908;37.880;2024-01-10T01:53:26;1.10;;;1.10;;
76589;SDS011;65471;55.908;37.880;2024-01-10T01:55:55;0.80;;;0.80;;
76589;SDS011;65471;55.908;37.880;2024-01-10T01:58:23;0.90;;;0.90;;
76589;SDS011;65471;55.908;37.880;2024-01-10T02:00:51;0.65;;;0.65;;
76589;SDS011;65471;55.908;37.880;2024-01-10T02:03:18;0.75;;;0.75;;
76589;SDS011;65471;55.908;37.880;2024-01-10T02:08:14;0.90;;;0.90;;
76589;SDS011;65471;55.908;37.880;2024-01-10T02:10:41;0.80;;;0.80;;
76589;SDS011;65471;55.908;37.880;2024-01-10T02:13:09;0.90;;;0.90;;
76589;SDS011;65471;55.908;37.880;2024-01-10T02:15:38;1.05;;;1.05;;
76589;SDS011;65471;55.908;37.880;2024-01-10T02:18:25;1.67;;;1.13;;
76589;SDS011;65471;55.908;37.880;2024-01-10T02:20:52;1.20;;;1.20;;
76589;SDS011;65471;55.908;37.880;2024-01-10T02:23:19;1.40;;;1.40;;
76589;SDS011;65471;55.908;37.880;2024-01-10T02:25:46;1.60;;;1.60;;
76589;SDS011;65471;55.908;37.880;2024-01-10T02:28:14;1.23;;;1.23;;
76589;SDS011;65471;55.908;37.880;2024-01-10T02:30:41;1.48;;;1.48;;
76589;SDS011;65471;55.908;37.880;2024-01-10T02:33:08;1.40;;;1.40;;
76589;SDS011;65471;55.908;37.880;2024-01-10T02:35:35;1.50;;;1.50;;
76589;SDS011;65471;55.908;37.880;2024-01-10T02:38:02;1.80;;;1.75;;
76589;SDS011;65471;55.908;37.880;2024-01-10T02:40:30;3.78;;;1.85;;
76589;SDS011;65471;55.908;37.880;2024-01-10T02:42:57;1.90;;;1.80;;
76589;SDS011;65471;55.908;37.880;2024-01-10T02:45:24;2.50;;;2.40;;
76589;SDS011;65471;55.908;37.880;2024-01-10T02:47:52;4.63;;;4.13;;
76589;SDS011;65471;55.908;37.880;2024-01-10T02:50:19;5.13;;;4.68;;
76589;SDS011;65471;55.908;37.880;2024-01-10T02:52:46;5.20;;;4.65;;
76589;SDS011;65471;55.908;37.880;2024-01-10T02:55:13;6.68;;;5.05;;
76589;SDS011;65471;55.908;37.880;2024-01-10T02:57:40;5.93;;;5.35;;
76589;SDS011;65471;55.908;37.880;2024-01-10T03:00:07;5.93;;;5.03;;
76589;SDS011;65471;55.908;37.880;2024-01-10T03:02:35;6.50;;;5.83;;
76589;SDS011;65471;55.908;37.880;2024-01-10T03:05:02;7.38;;;5.78;;
76589;SDS011;65471;55.908;37.880;2024-01-10T03:07:30;9.23;;;6.10;;
76589;SDS011;65471;55.908;37.880;2024-01-10T03:09:57;7.70;;;5.88;;
76589;SDS011;65471;55.908;37.880;2024-01-10T03:12:24;13.10;;;6.60;;
76589;SDS011;65471;55.908;37.880;2024-01-10T03:14:51;10.88;;;5.70;;
76589;SDS011;65471;55.908;37.880;2024-01-10T03:17:17;10.20;;;7.53;;
76589;SDS011;65471;55.908;37.880;2024-01-10T03:19:44;9.40;;;6.40;;
76589;SDS011;65471;55.908;37.880;2024-01-10T03:22:12;11.18;;;6.35;;
76589;SDS011;65471;55.908;37.880;2024-01-10T03:24:39;6.55;;;5.90;;
76589;SDS011;65471;55.908;37.880;2024-01-10T03:27:06;14.25;;;6.45;;
76589;SDS011;65471;55.908;37.880;2024-01-10T03:29:33;9.68;;;6.32;;
76589;SDS011;65471;55.908;37.880;2024-01-10T03:32:02;8.45;;;6.93;;
76589;SDS011;65471;55.908;37.880;2024-01-10T03:34:29;10.38;;;6.63;;
76589;SDS011;65471;55.908;37.880;2024-01-10T03:36:56;8.73;;;6.28;;
76589;SDS011;65471;55.908;37.880;2024-01-10T03:39:23;7.15;;;5.75;;
76589;SDS011;65471;55.908;37.880;2024-01-10T03:41:50;12.45;;;6.05;;
76589;SDS011;65471;55.908;37.880;2024-01-10T03:44:17;9.77;;;6.80;;
76589;SDS011;65471;55.908;37.880;2024-01-10T03:46:44;10.02;;;6.90;;
76589;SDS011;65471;55.908;37.880;2024-01-10T03:49:11;9.82;;;6.45;;
76589;SDS011;65471;55.908;37.880;2024-01-10T03:51:39;11.40;;;6.85;;
76589;SDS011;65471;55.908;37.880;2024-01-10T03:54:07;13.98;;;6.72;;
76589;SDS011;65471;55.908;37.880;2024-01-10T03:56:35;10.68;;;7.10;;
76589;SDS011;65471;55.908;37.880;2024-01-10T03:59:02;19.77;;;7.38;;
76589;SDS011;65471;55.908;37.880;2024-01-10T04:01:29;10.95;;;6.85;;
76589;SDS011;65471;55.908;37.880;2024-01-10T04:03:56;18.15;;;7.68;;
76589;SDS011;65471;55.908;37.880;2024-01-10T04:06:23;9.55;;;6.68;;
76589;SDS011;65471;55.908;37.880;2024-01-10T04:08:51;11.60;;;6.90;;
76589;SDS011;65471;55.908;37.880;2024-01-10T04:11:18;9.90;;;6.63;;
76589;SDS011;65471;55.908;37.880;2024-01-10T04:13:45;11.75;;;7.25;;
76589;SDS011;65471;55.908;37.880;2024-01-10T04:16:12;13.77;;;7.20;;
76589;SDS011;65471;55.908;37.880;2024-01-10T04:18:39;13.40;;;6.93;;
76589;SDS011;65471;55.908;37.880;2024-01-10T04:21:07;12.00;;;7.13;;
76589;SDS011;65471;55.908;37.880;2024-01-10T04:23:35;9.05;;;6.47;;
76589;SDS011;65471;55.908;37.880;2024-01-10T04:26:02;7.63;;;6.10;;
76589;SDS011;65471;55.908;37.880;2024-01-10T04:28:30;9.52;;;6.80;;
76589;SDS011;65471;55.908;37.880;2024-01-10T04:30:57;7.75;;;6.35;;
76589;SDS011;65471;55.908;37.880;2024-01-10T04:33:24;62.78;;;18.23;;
76589;SDS011;65471;55.908;37.880;2024-01-10T04:35:51;29.10;;;11.13;;
76589;SDS011;65471;55.908;37.880;2024-01-10T04:38:18;15.80;;;8.13;;
76589;SDS011;65471;55.908;37.880;2024-01-10T04:40:45;10.25;;;7.25;;
76589;SDS011;65471;55.908;37.880;2024-01-10T04:43:12;21.58;;;11.75;;
76589;SDS011;65471;55.908;37.880;2024-01-10T04:45:39;14.73;;;7.75;;
76589;SDS011;65471;55.908;37.880;2024-01-10T04:48:06;14.90;;;9.75;;
76589;SDS011;65471;55.908;37.880;2024-01-10T04:50:34;17.92;;;6.43;;
76589;SDS011;65471;55.908;37.880;2024-01-10T04:53:02;7.75;;;6.03;;
76589;SDS011;65471;55.908;37.880;2024-01-10T04:55:29;9.93;;;7.20;;
76589;SDS011;65471;55.908;37.880;2024-01-10T04:57:56;13.32;;;7.40;;
76589;SDS011;65471;55.908;37.880;2024-01-10T05:00:23;7.07;;;5.68;;
76589;SDS011;65471;55.908;37.880;2024-01-10T05:02:50;17.70;;;7.78;;
76589;SDS011;65471;55.908;37.880;2024-01-10T05:05:20;8.45;;;6.40;;
76589;SDS011;65471;55.908;37.880;2024-01-10T05:07:50;9.93;;;6.53;;
76589;SDS011;65471;55.908;37.880;2024-01-10T05:10:18;8.18;;;6.55;;
76589;SDS011;65471;55.908;37.880;2024-01-10T05:12:45;8.98;;;6.13;;
76589;SDS011;65471;55.908;37.880;2024-01-10T05:15:12;10.75;;;5.38;;
76589;SDS011;65471;55.908;37.880;2024-01-10T05:17:39;10.82;;;6.97;;
76589;SDS011;65471;55.908;37.880;2024-01-10T05:20:06;10.50;;;5.93;;
76589;SDS011;65471;55.908;37.880;2024-01-10T05:22:34;8.07;;;5.80;;
76589;SDS011;65471;55.908;37.880;2024-01-10T05:25:01;17.77;;;8.82;;
76589;SDS011;65471;55.908;37.880;2024-01-10T05:27:29;8.75;;;6.07;;
76589;SDS011;65471;55.908;37.880;2024-01-10T05:29:56;15.57;;;8.30;;
76589;SDS011;65471;55.908;37.880;2024-01-10T05:32:23;6.93;;;6.10;;
76589;SDS011;65471;55.908;37.880;2024-01-10T05:34:50;18.42;;;6.95;;
76589;SDS011;65471;55.908;37.880;2024-01-10T05:37:17;5.80;;;5.25;;
76589;SDS011;65471;55.908;37.880;2024-01-10T05:39:44;4.70;;;4.30;;
76589;SDS011;65471;55.908;37.880;2024-01-10T05:42:11;5.57;;;5.07;;
76589;SDS011;65471;55.908;37.880;2024-01-10T05:44:38;8.27;;;4.97;;
76589;SDS011;65471;55.908;37.880;2024-01-10T05:47:06;6.57;;;4.72;;
76589;SDS011;65471;55.908;37.880;2024-01-10T05:49:33;9.55;;;5.63;;
76589;SDS011;65471;55.908;37.880;2024-01-10T05:52:00;6.53;;;4.90;;
76589;SDS011;65471;55.908;37.880;2024-01-10T05:54:28;10.45;;;5.13;;
76589;SDS011;65471;55.908;37.880;2024-01-10T05:56:55;12.13;;;6.43;;
76589;SDS011;65471;55.908;37.880;2024-01-10T05:59:22;11.00;;;5.88;;
76589;SDS011;65471;55.908;37.880;2024-01-10T06:01:52;7.07;;;4.13;;
76589;SDS011;65471;55.908;37.880;2024-01-10T06:04:19;5.18;;;4.60;;
76589;SDS011;65471;55.908;37.880;2024-01-10T06:06:46;23.17;;;7.82;;
76589;SDS011;65471;55.908;37.880;2024-01-10T06:09:13;22.00;;;6.10;;
76589;SDS011;65471;55.908;37.880;2024-01-10T06:11:41;6.05;;;4.75;;
76589;SDS011;65471;55.908;37.880;2024-01-10T06:14:09;9.02;;;4.85;;
76589;SDS011;65471;55.908;37.880;2024-01-10T06:16:36;11.52;;;5.00;;
76589;SDS011;65471;55.908;37.880;2024-01-10T06:19:03;5.57;;;5.05;;
76589;SDS011;65471;55.908;37.880;2024-01-10T06:21:30;4.10;;;3.80;;
76589;SDS011;65471;55.908;37.880;2024-01-10T06:23:57;9.00;;;5.47;;
76589;SDS011;65471;55.908;37.880;2024-01-10T06:26:24;11.90;;;4.80;;
76589;SDS011;65471;55.908;37.880;2024-01-10T06:28:52;10.18;;;5.50;;
76589;SDS011;65471;55.908;37.880;2024-01-10T06:31:19;10.82;;;5.30;;
76589;SDS011;65471;55.908;37.880;2024-01-10T06:33:47;8.45;;;5.13;;
76589;SDS011;65471;55.908;37.880;2024-01-10T06:36:14;9.82;;;5.53;;
76589;SDS011;65471;55.908;37.880;2024-01-10T06:38:41;9.25;;;5.35;;
76589;SDS011;65471;55.908;37.880;2024-01-10T06:41:08;9.63;;;5.25;;
76589;SDS011;65471;55.908;37.880;2024-01-10T06:43:36;13.70;;;5.57;;
76589;SDS011;65471;55.908;37.880;2024-01-10T06:46:03;9.50;;;5.15;;
76589;SDS011;65471;55.908;37.880;2024-01-10T06:48:30;10.55;;;6.03;;
76589;SDS011;65471;55.908;37.880;2024-01-10T06:50:58;7.40;;;5.18;;
76589;SDS011;65471;55.908;37.880;2024-01-10T06:53:26;9.65;;;5.20;;
76589;SDS011;65471;55.908;37.880;2024-01-10T06:55:52;5.97;;;5.20;;
76589;SDS011;65471;55.908;37.880;2024-01-10T06:58:20;6.95;;;4.65;;
76589;SDS011;65471;55.908;37.880;2024-01-10T07:00:47;8.07;;;5.18;;
76589;SDS011;65471;55.908;37.880;2024-01-10T07:03:14;7.13;;;4.90;;
76589;SDS011;65471;55.908;37.880;2024-01-10T07:05:41;6.47;;;4.45;;
76589;SDS011;65471;55.908;37.880;2024-01-10T07:08:08;14.10;;;5.20;;
76589;SDS011;65471;55.908;37.880;2024-01-10T07:10:35;6.35;;;5.18;;
76589;SDS011;65471;55.908;37.880;2024-01-10T07:13:02;9.45;;;5.13;;
76589;SDS011;65471;55.908;37.880;2024-01-10T07:15:30;7.72;;;4.57;;
76589;SDS011;65471;55.908;37.880;2024-01-10T07:17:57;5.28;;;4.38;;
76589;SDS011;65471;55.908;37.880;2024-01-10T07:20:25;7.65;;;4.30;;
76589;SDS011;65471;55.908;37.880;2024-01-10T07:22:52;10.55;;;5.00;;
76589;SDS011;65471;55.908;37.880;2024-01-10T07:25:19;8.00;;;4.78;;
76589;SDS011;65471;55.908;37.880;2024-01-10T07:27:48;11.13;;;5.65;;
76589;SDS011;65471;55.908;37.880;2024-01-10T07:30:16;6.68;;;5.57;;
76589;SDS011;65471;55.908;37.880;2024-01-10T07:32:44;12.63;;;5.47;;
76589;SDS011;65471;55.908;37.880;2024-01-10T07:35:12;19.05;;;5.28;;
76589;SDS011;65471;55.908;37.880;2024-01-10T07:37:41;8.53;;;5.33;;
76589;SDS011;65471;55.908;37.880;2024-01-10T07:40:09;7.05;;;5.78;;
76589;SDS011;65471;55.908;37.880;2024-01-10T07:42:37;10.05;;;5.88;;
76589;SDS011;65471;55.908;37.880;2024-01-10T07:45:06;24.70;;;8.77;;
76589;SDS011;65471;55.908;37.880;2024-01-10T07:47:34;64.85;;;17.65;;
76589;SDS011;65471;55.908;37.880;2024-01-10T07:52:33;12.48;;;4.97;;
76589;SDS011;65471;55.908;37.880;2024-01-10T07:55:00;7.13;;;5.40;;
76589;SDS011;65471;55.908;37.880;2024-01-10T07:57:29;14.98;;;5.10;;
76589;SDS011;65471;55.908;37.880;2024-01-10T07:59:56;8.15;;;5.25;;
76589;SDS011;65471;55.908;37.880;2024-01-10T08:02:23;9.45;;;4.57;;
76589;SDS011;65471;55.908;37.880;2024-01-10T08:04:51;14.23;;;5.78;;
76589;SDS011;65471;55.908;37.880;2024-01-10T08:07:19;12.00;;;7.18;;
76589;SDS011;65471;55.908;37.880;2024-01-10T08:09:46;9.63;;;6.03;;
76589;SDS011;65471;55.908;37.880;2024-01-10T08:12:13;7.55;;;5.25;;
76589;SDS011;65471;55.908;37.880;2024-01-10T08:14:42;5.63;;;4.47;;
76589;SDS011;65471;55.908;37.880;2024-01-10T08:17:12;16.52;;;5.18;;
76589;SDS011;65471;55.908;37.880;2024-01-10T08:19:39;7.50;;;4.68;;
76589;SDS011;65471;55.908;37.880;2024-01-10T08:22:06;7.03;;;4.07;;
76589;SDS011;65471;55.908;37.880;2024-01-10T08:24:34;5.05;;;4.57;;
76589;SDS011;65471;55.908;37.880;2024-01-10T08:27:01;8.07;;;5.60;;
76589;SDS011;65471;55.908;37.880;2024-01-10T08:29:29;4.32;;;4.00;;
76589;SDS011;65471;55.908;37.880;2024-01-10T08:34:25;5.68;;;4.40;;
76589;SDS011;65471;55.908;37.880;2024-01-10T08:36:52;7.88;;;4.10;;
76589;SDS011;65471;55.908;37.880;2024-01-10T08:39:19;6.47;;;4.55;;
76589;SDS011;65471;55.908;37.880;2024-01-10T08:44:15;4.47;;;4.07;;
76589;SDS011;65471;55.908;37.880;2024-01-10T08:46:42;5.22;;;3.58;;
76589;SDS011;65471;55.908;37.880;2024-01-10T08:49:10;5.55;;;3.90;;
76589;SDS011;65471;55.908;37.880;2024-01-10T08:51:37;5.82;;;3.70;;
76589;SDS011;65471;55.908;37.880;2024-01-10T08:54:04;6.60;;;3.45;;
76589;SDS011;65471;55.908;37.880;2024-01-10T08:56:31;3.58;;;3.28;;
76589;SDS011;65471;55.908;37.880;2024-01-10T08:58:58;4.38;;;3.15;;
76589;SDS011;65471;55.908;37.880;2024-01-10T09:01:26;4.63;;;3.58;;
76589;SDS011;65471;55.908;37.880;2024-01-10T09:03:53;4.20;;;3.30;;
76589;SDS011;65471;55.908;37.880;2024-01-10T09:06:21;3.90;;;3.60;;
76589;SDS011;65471;55.908;37.880;2024-01-10T09:08:48;3.85;;;3.40;;
76589;SDS011;65471;55.908;37.880;2024-01-10T09:11:15;8.35;;;3.88;;
76589;SDS011;65471;55.908;37.880;2024-01-10T09:13:42;4.03;;;3.67;;
76589;SDS011;65471;55.908;37.880;2024-01-10T09:16:09;5.30;;;3.03;;
76589;SDS011;65471;55.908;37.880;2024-01-10T09:18:36;5.50;;;3.50;;
76589;SDS011;65471;55.908;37.880;2024-01-10T09:21:03;4.70;;;3.60;;
76589;SDS011;65471;55.908;37.880;2024-01-10T09:23:31;6.82;;;3.70;;
76589;SDS011;65471;55.908;37.880;2024-01-10T09:25:58;4.57;;;3.70;;
76589;SDS011;65471;55.908;37.880;2024-01-10T09:28:25;5.78;;;3.58;;
76589;SDS011;65471;55.908;37.880;2024-01-10T09:30:52;4.40;;;3.80;;
76589;SDS011;65471;55.908;37.880;2024-01-10T09:33:21;7.82;;;3.92;;
76589;SDS011;65471;55.908;37.880;2024-01-10T09:35:49;5.05;;;3.70;;
76589;SDS011;65471;55.908;37.880;2024-01-10T09:38:16;7.57;;;4.30;;
76589;SDS011;65471;55.908;37.880;2024-01-10T09:40:44;7.03;;;3.95;;
76589;SDS011;65471;55.908;37.880;2024-01-10T09:43:11;5.90;;;3.95;;
76589;SDS011;65471;55.908;37.880;2024-01-10T09:45:45;7.78;;;4.20;;
76589;SDS011;65471;55.908;37.880;2024-01-10T09:48:15;9.90;;;4.68;;
76589;SDS011;65471;55.908;37.880;2024-01-10T09:50:42;5.65;;;4.32;;
76589;SDS011;65471;55.908;37.880;2024-01-10T09:53:11;5.72;;;4.20;;
76589;SDS011;65471;55.908;37.880;2024-01-10T09:55:48;8.52;;;4.57;;
76589;SDS011;65471;55.908;37.880;2024-01-10T09:58:15;4.95;;;4.45;;
76589;SDS011;65471;55.908;37.880;2024-01-10T10:00:43;9.02;;;4.55;;
76589;SDS011;65471;55.908;37.880;2024-01-10T10:03:10;5.68;;;4.18;;
76589;SDS011;65471;55.908;37.880;2024-01-10T10:05:39;6.38;;;4.32;;
76589;SDS011;65471;55.908;37.880;2024-01-10T10:08:13;6.93;;;5.32;;
76589;SDS011;65471;55.908;37.880;2024-01-10T10:10:42;8.90;;;5.03;;
76589;SDS011;65471;55.908;37.880;2024-01-10T10:13:23;7.80;;;4.63;;
76589;SDS011;65471;55.908;37.880;2024-01-10T10:18:29;5.57;;;4.80;;
76589;SDS011;65471;55.908;37.880;2024-01-10T10:23:37;16.60;;;5.85;;
76589;SDS011;65471;55.908;37.880;2024-01-10T10:26:17;9.43;;;5.43;;
76589;SDS011;65471;55.908;37.880;2024-01-10T10:28:49;8.18;;;5.32;;
76589;SDS011;65471;55.908;37.880;2024-01-10T10:31:17;14.90;;;5.60;;
76589;SDS011;65471;55.908;37.880;2024-01-10T10:33:45;4.82;;;4.40;;
76589;SDS011;65471;55.908;37.880;2024-01-10T10:36:15;6.45;;;4.80;;
76589;SDS011;65471;55.908;37.880;2024-01-10T10:38:42;9.23;;;4.30;;
76589;SDS011;65471;55.908;37.880;2024-01-10T10:41:09;9.48;;;5.30;;
76589;SDS011;65471;55.908;37.880;2024-01-10T10:43:38;9.93;;;5.45;;
76589;SDS011;65471;55.908;37.880;2024-01-10T10:46:07;6.75;;;4.72;;
76589;SDS011;65471;55.908;37.880;2024-01-10T10:48:42;4.75;;;3.78;;
76589;SDS011;65471;55.908;37.880;2024-01-10T10:51:32;5.68;;;4.20;;
76589;SDS011;65471;55.908;37.880;2024-01-10T10:54:06;14.45;;;4.57;;
76589;SDS011;65471;55.908;37.880;2024-01-10T10:56:35;8.55;;;4.85;;
76589;SDS011;65471;55.908;37.880;2024-01-10T10:59:03;9.18;;;4.35;;
76589;SDS011;65471;55.908;37.880;2024-01-10T11:01:32;6.88;;;4.57;;
76589;SDS011;65471;55.908;37.880;2024-01-10T11:04:00;11.05;;;4.88;;
76589;SDS011;65471;55.908;37.880;2024-01-10T11:06:28;6.47;;;4.85;;
76589;SDS011;65471;55.908;37.880;2024-01-10T11:09:00;7.72;;;5.47;;
76589;SDS011;65471;55.908;37.880;2024-01-10T11:11:57;4.93;;;4.53;;
76589;SDS011;65471;55.908;37.880;2024-01-10T11:25:36;6.25;;;3.80;;
76589;SDS011;65471;55.908;37.880;2024-01-10T11:28:04;11.25;;;4.90;;
76589;SDS011;65471;55.908;37.880;2024-01-10T11:30:34;11.80;;;4.88;;
76589;SDS011;65471;55.908;37.880;2024-01-10T11:33:22;7.57;;;4.70;;
76589;SDS011;65471;55.908;37.880;2024-01-10T11:41:28;6.65;;;4.40;;
76589;SDS011;65471;55.908;37.880;2024-01-10T11:46:40;13.27;;;5.18;;
76589;SDS011;65471;55.908;37.880;2024-01-10T11:49:09;12.45;;;4.55;;
76589;SDS011;65471;55.908;37.880;2024-01-10T11:51:39;7.03;;;4.90;;
76589;SDS011;65471;55.908;37.880;2024-01-10T11:59:42;8.32;;;5.35;;
76589;SDS011;65471;55.908;37.880;2024-01-10T12:02:12;9.68;;;5.43;;
76589;SDS011;65471;55.908;37.880;2024-01-10T12:04:41;8.45;;;5.32;;
76589;SDS011;65471;55.908;37.880;2024-01-10T12:07:14;5.57;;;4.90;;
76589;SDS011;65471;55.908;37.880;2024-01-10T12:09:44;7.85;;;4.40;;
76589;SDS011;65471;55.908;37.880;2024-01-10T12:12:14;7.32;;;4.68;;
76589;SDS011;65471;55.908;37.880;2024-01-10T12:14:42;11.65;;;5.13;;
76589;SDS011;65471;55.908;37.880;2024-01-10T12:17:13;7.97;;;5.45;;
76589;SDS011;65471;55.908;37.880;2024-01-10T12:19:40;7.28;;;4.88;;
76589;SDS011;65471;55.908;37.880;2024-01-10T12:22:13;6.50;;;4.80;;
76589;SDS011;65471;55.908;37.880;2024-01-10T12:24:43;8.10;;;5.07;;
76589;SDS011;65471;55.908;37.880;2024-01-10T12:27:18;8.35;;;5.47;;
76589;SDS011;65471;55.908;37.880;2024-01-10T12:29:51;8.50;;;5.15;;
76589;SDS011;65471;55.908;37.880;2024-01-10T12:32:20;8.07;;;5.20;;
76589;SDS011;65471;55.908;37.880;2024-01-10T12:35:01;6.07;;;5.05;;
76589;SDS011;65471;55.908;37.880;2024-01-10T12:37:31;5.82;;;5.20;;
76589;SDS011;65471;55.908;37.880;2024-01-10T12:39:58;5.97;;;4.90;;
76589;SDS011;65471;55.908;37.880;2024-01-10T12:42:27;13.57;;;5.65;;
76589;SDS011;65471;55.908;37.880;2024-01-10T12:44:54;7.40;;;5.43;;
76589;SDS011;65471;55.908;37.880;2024-01-10T12:47:22;5.85;;;4.95;;
76589;SDS011;65471;55.908;37.880;2024-01-10T12:49:51;7.80;;;5.60;;
76589;SDS011;65471;55.908;37.880;2024-01-10T12:52:18;10.68;;;4.97;;
76589;SDS011;65471;55.908;37.880;2024-01-10T12:54:50;18.42;;;4.70;;
76589;SDS011;65471;55.908;37.880;2024-01-10T12:57:17;12.23;;;5.60;;
76589;SDS011;65471;55.908;37.880;2024-01-10T12:59:44;6.63;;;5.38;;
76589;SDS011;65471;55.908;37.880;2024-01-10T13:02:12;12.57;;;5.20;;
76589;SDS011;65471;55.908;37.880;2024-01-10T13:04:39;5.93;;;5.25;;
76589;SDS011;65471;55.908;37.880;2024-01-10T13:07:06;15.20;;;5.57;;
76589;SDS011;65471;55.908;37.880;2024-01-10T13:09:33;7.57;;;4.80;;
76589;SDS011;65471;55.908;37.880;2024-01-10T13:12:03;9.57;;;5.20;;
76589;SDS011;65471;55.908;37.880;2024-01-10T13:14:30;8.63;;;4.82;;
76589;SDS011;65471;55.908;37.880;2024-01-10T13:16:58;8.05;;;5.38;;
76589;SDS011;65471;55.908;37.880;2024-01-10T13:19:26;8.98;;;5.05;;
76589;SDS011;65471;55.908;37.880;2024-01-10T13:21:53;9.95;;;5.90;;
76589;SDS011;65471;55.908;37.880;2024-01-10T13:24:21;5.80;;;5.13;;
76589;SDS011;65471;55.908;37.880;2024-01-10T13:26:48;10.45;;;5.60;;
76589;SDS011;65471;55.908;37.880;2024-01-10T13:29:16;8.00;;;5.20;;
76589;SDS011;65471;55.908;37.880;2024-01-10T13:31:43;8.15;;;5.13;;
76589;SDS011;65471;55.908;37.880;2024-01-10T13:34:10;7.53;;;4.88;;
76589;SDS011;65471;55.908;37.880;2024-01-10T13:36:38;9.20;;;6.33;;
76589;SDS011;65471;55.908;37.880;2024-01-10T13:39:05;10.52;;;5.97;;
76589;SDS011;65471;55.908;37.880;2024-01-10T13:41:33;6.70;;;5.78;;
76589;SDS011;65471;55.908;37.880;2024-01-10T13:44:01;6.30;;;5.15;;
76589;SDS011;65471;55.908;37.880;2024-01-10T13:46:28;7.63;;;5.97;;
76589;SDS011;65471;55.908;37.880;2024-01-10T13:48:55;9.90;;;6.75;;
76589;SDS011;65471;55.908;37.880;2024-01-10T13:51:22;11.02;;;5.88;;
76589;SDS011;65471;55.908;37.880;2024-01-10T13:53:50;16.70;;;6.22;;
76589;SDS011;65471;55.908;37.880;2024-01-10T13:56:17;10.25;;;6.43;;
76589;SDS011;65471;55.908;37.880;2024-01-10T13:58:44;11.45;;;6.13;;
76589;SDS011;65471;55.908;37.880;2024-01-10T14:01:11;12.10;;;5.80;;
76589;SDS011;65471;55.908;37.880;2024-01-10T14:03:39;10.02;;;6.05;;
76589;SDS011;65471;55.908;37.880;2024-01-10T14:06:07;8.98;;;5.57;;
76589;SDS011;65471;55.908;37.880;2024-01-10T14:08:34;10.10;;;6.45;;
76589;SDS011;65471;55.908;37.880;2024-01-10T14:11:04;7.85;;;5.72;;
76589;SDS011;65471;55.908;37.880;2024-01-10T14:13:31;8.05;;;5.30;;
76589;SDS011;65471;55.908;37.880;2024-01-10T14:15:58;9.13;;;5.85;;
76589;SDS011;65471;55.908;37.880;2024-01-10T14:18:26;9.43;;;5.85;;
76589;SDS011;65471;55.908;37.880;2024-01-10T14:20:53;10.05;;;6.22;;
76589;SDS011;65471;55.908;37.880;2024-01-10T14:23:20;10.27;;;6.88;;
76589;SDS011;65471;55.908;37.880;2024-01-10T14:25:47;17.95;;;6.38;;
76589;SDS011;65471;55.908;37.880;2024-01-10T14:28:14;11.00;;;7.07;;
76589;SDS011;65471;55.908;37.880;2024-01-10T14:30:41;14.13;;;7.05;;
76589;SDS011;65471;55.908;37.880;2024-01-10T14:33:08;13.40;;;6.95;;
76589;SDS011;65471;55.908;37.880;2024-01-10T14:35:36;6.63;;;5.63;;
76589;SDS011;65471;55.908;37.880;2024-01-10T14:38:03;20.77;;;8.35;;
76589;SDS011;65471;55.908;37.880;2024-01-10T14:40:30;15.43;;;8.10;;
76589;SDS011;65471;55.908;37.880;2024-01-10T14:42:58;9.55;;;5.88;;
76589;SDS011;65471;55.908;37.880;2024-01-10T14:45:25;8.63;;;6.88;;
76589;SDS011;65471;55.908;37.880;2024-01-10T14:47:52;17.20;;;7.93;;
76589;SDS011;65471;55.908;37.880;2024-01-10T14:50:19;11.50;;;7.55;;
76589;SDS011;65471;55.908;37.880;2024-01-10T14:52:48;8.63;;;7.00;;
76589;SDS011;65471;55.908;37.880;2024-01-10T14:55:16;8.38;;;6.75;;
76589;SDS011;65471;55.908;37.880;2024-01-10T14:57:43;9.25;;;6.55;;
76589;SDS011;65471;55.908;37.880;2024-01-10T15:00:10;7.95;;;5.63;;
76589;SDS011;65471;55.908;37.880;2024-01-10T15:02:38;13.27;;;6.40;;
76589;SDS011;65471;55.908;37.880;2024-01-10T15:05:06;14.40;;;7.15;;
76589;SDS011;65471;55.908;37.880;2024-01-10T15:07:33;11.82;;;6.32;;
76589;SDS011;65471;55.908;37.880;2024-01-10T15:10:00;10.63;;;6.00;;
76589;SDS011;65471;55.908;37.880;2024-01-10T15:12:31;10.45;;;6.60;;
76589;SDS011;65471;55.908;37.880;2024-01-10T15:14:59;16.17;;;6.22;;
76589;SDS011;65471;55.908;37.880;2024-01-10T15:17:30;21.80;;;7.32;;